Historique des mesures à Cassis (13260), France
Quotidien Résumé Mai 17, 2017 Unités:  US    Métrique   Métrique/US
« Précédent (Jour)
Suivant (Jour) »
Quotidien Hebdomadaire Mensuel Annuel Période au choix
  Maximum: Minimum: Moyenne:
Température: 32 °F 65.1 °F 71.1 °F
Point de rosée: 32 °F 48 °F 51.6 °F
Humidité: Humidity % 42 % 47 %
Vitesse du vent: WindSpeedKMH mph 0.0 mph 2.1 mph
Rafales: WindSpeedGustKMH mph - -
Vent:- - SE
Pression: 0 in 30 in -
Précipitations: 0 in    
Historical Graphs
 
 
Mesures pour : Mai 17, 2017
Heure Temperature Point de rosée Pression Vent Vitesse du vent Rafales Humidité Pluie (par heure) Conditions
32 °F 32 °F 0 in Calm     Humidity % 0 in SoftwareType W/m2
00:10 66.9 °F 51.3 °F 30.2 in North 2.1 mph 3.2 mph 57 % 0 in open2300-1.11 W/m2
01:10 66.4 °F 51.3 °F 30.2 in Calm   2.6 mph 58 % 0 in open2300-1.11 W/m2
02:10 66 °F 50.4 °F 30.1 in Calm     57 % 0 in open2300-1.11 W/m2
03:10 66 °F 49.5 °F 30.1 in NNW 3.5 mph 4.0 mph 55 % 0 in open2300-1.11 W/m2
04:10 65.7 °F 48.9 °F 30.1 in WNW 1.1 mph 4.0 mph 55 % 0 in open2300-1.11 W/m2
05:10 65.5 °F 48.4 °F 30.1 in NNE 1.8 mph 2.1 mph 54 % 0 in open2300-1.11 W/m2
06:10 65.1 °F 48 °F 30.1 in Calm     54 % 0 in open2300-1.11 W/m2
07:10 65.8 °F 48.2 °F 30.1 in NNE 2.6 mph 5.0 mph 53 % 0 in open2300-1.11 W/m2
08:10 72.1 °F 51.3 °F 30.1 in Calm   1.4 mph 48 % 0 in open2300-1.11 W/m2
09:11 72 °F 51.6 °F 30.1 in Calm     49 % 0 in open2300-1.11 W/m2
10:10 73.6 °F 52.5 °F 30.1 in SSE 6.4 mph 6.4 mph 48 % 0 in open2300-1.11 W/m2
11:10 80.2 °F 55 °F 30.1 in West 5.8 mph 5.8 mph 42 % 0 in open2300-1.11 W/m2
12:10 81.3 °F 55.9 °F 30.1 in SE 3.2 mph 5.5 mph 42 % 0 in open2300-1.11 W/m2
13:10 80.8 °F 57.4 °F 30.1 in SSW 9.0 mph 9.0 mph 45 % 0 in open2300-1.11 W/m2
14:10 81.7 °F 57.6 °F 30.1 in SSE 5.0 mph 6.4 mph 44 % 0 in open2300-1.11 W/m2
15:10 81 °F 55.8 °F 30 in SSW 1.8 mph 9.3 mph 42 % 0 in open2300-1.11 W/m2
16:10 80.1 °F 55.6 °F 30 in Calm   8.2 mph 43 % 0 in open2300-1.11 W/m2
17:10 79 °F 55 °F 30 in South 3.2 mph 3.5 mph 44 % 0 in open2300-1.11 W/m2
18:10 77.9 °F 55.4 °F 30 in South 1.4 mph 3.5 mph 46 % 0 in open2300-1.11 W/m2
19:11 76.3 °F 55.2 °F 30 in Calm   1.4 mph 48 % 0 in open2300-1.11 W/m2
20:11 74.1 °F 53.8 °F 30 in Calm     49 % 0 in open2300-1.11 W/m2
21:10 71.4 °F 51.8 °F 30 in NNE 1.1 mph 1.1 mph 50 % 0 in open2300-1.11 W/m2
22:10 68.4 °F 49.1 °F 30 in NNE 2.1 mph 2.6 mph 50 % 0 in open2300-1.11 W/m2
23:10 66.7 °F 48.6 °F 30 in NNE 2.1 mph 2.1 mph 52 % 0 in open2300-1.11 W/m2
Observations météo à CASSIS
WU-History script by Weather Underground - 1 mb